Kenosha Regional Airport
KENW : now visible

Airfield :











YOU CAN JOIN US ON...

 
LOGIN :

Register | Disclaimer

   EN    FR    IT 

 









Legend :    VFR   Marginal VFR   IFR   Intensive IFR   Very Intensive IFR
Visi :
Ceiling :
>= 8 km
>= 3000ft
5 to 8 km
1000 to 3000 ft
1500m to 5 km
500 to 1000 ft
800 to 1500m
200 to 500 ft
< 800m
< 200 ft
Symbols :   Thunderstorms  Fog  Heavy snow  Heavy precipitations  Wind > 20 kt






- Airport Elevation : 742 ft


KENW - Kenosha Regional

CURRENT METAR :
  • 181129Z AUTO 15012KT 2 1/2SM -FZRA BR OVC006 01/01 A2976 RMK AO2 RAE00FZRAB05E16B27 CIG 005V011 I1002 T00110006 PNO $

EXPIRED METARs :
  • 181122Z AUTO 15011KT 3SM BR OVC007 01/01 A2976 RMK AO2 RAE00FZRAB05E16 CIG 005V011 I1002 T00110006 PNO $
  • 181053Z AUTO 16016G21KT 8SM -RA OVC006 01/00 A2980 RMK AO2 RAB02E06B44FZRAE44 CIG 005V011 SLP098 I1004 T00110000 PNO $
  • 181039Z AUTO 15011G23KT 7SM -FZRA OVC007 01/00 A2980 RMK AO2 RAB02E06 CIG 006V010 I1004 T00110000 PNO $
  • 181028Z AUTO 15011G21KT 5SM FZRA BR OVC008 01/00 A2981 RMK AO2 RAB02E06 CIG 006V011 I1003 T00110000 PNO $
  • 181008Z AUTO 15016G24KT 8SM -FZRA BKN008 OVC011 01/M01 A2984 RMK AO2 RAB02E06 PRESFR I1000 T00111006 PNO $
  • 180953Z AUTO 13013G21KT 6SM FZRA BR BKN007 OVC011 01/M01 A2985 RMK AO2 RAE05FZRAB05 SLP118 I1004 T00111006 PNO $
  • 180911Z AUTO 14013G22KT 5SM FZRA BR OVC007 01/M01 A2989 RMK AO2 RAE05FZRAB05 CIG 006V010 I1000 T00061006 PNO $
  • 180900Z AUTO 14013KT 3SM RA BR BKN008 OVC020 01/M01 A2991 RMK AO2 T00061006 PNO $
  • 180853Z AUTO 14012G23KT 1 3/4SM RA BR BKN008 BKN020 OVC026 01/M01 A2991 RMK AO2 RAE0759B30FZRAB0759E30 SLP138 6//// I1001 I3006 T00061011 58055 PNO $
  • 180832Z AUTO 15015G23KT 3SM +RA BR OVC009 01/M01 A2994 RMK AO2 RAE0759B30FZRAB0759E30 PRESFR I1001 T00061011 PNO $

TAF KENW
Valid from the 18 at 12:00 until the 19 at 12:00 UTC


181120Z 1812/1912 15013G21KT 4SM -FZDZSN OVC005
TEMPO 1812/1815 2SM -FZDZSN
FM181500 19012G20KT 1SM -SN BR OVC005
FM181800 27018G31KT 6SM BLSN OVC010
FM190100 28023G35KT P6SM OVC020
FM191100 29019G27KT P6SM BKN040



MET'MAP, your aeronautical weather chart ! - Copyright ORBIFLY December 2007 - Disclaimer

ORBIFLY MET'MAP TEAM :

Programming & Development : Alexandra Zaïnal
Concept & original design : Baudouin d'Aumeries
Assistance for programming : Marc-Olivier Méhu
Technical & hardware support : Manuel Goepfert

Contact : metmap@orbifly.com




SOURCES & CREDITS :

   NOAA       Earth
Advisory